sensor_id;sensor_type;location;lat;lon;timestamp;P1;durP1;ratioP1;P2;durP2;ratioP2
10947;SDS011;5526;42.070;24.752;2023-09-19T00:00:15;4.72;;;4.32;;
10947;SDS011;5526;42.070;24.752;2023-09-19T00:02:45;5.43;;;4.88;;
10947;SDS011;5526;42.070;24.752;2023-09-19T00:05:13;5.13;;;4.72;;
10947;SDS011;5526;42.070;24.752;2023-09-19T00:07:40;5.00;;;4.40;;
10947;SDS011;5526;42.070;24.752;2023-09-19T00:10:07;5.00;;;4.60;;
10947;SDS011;5526;42.070;24.752;2023-09-19T00:12:36;5.35;;;4.95;;
10947;SDS011;5526;42.070;24.752;2023-09-19T00:15:05;5.45;;;5.05;;
10947;SDS011;5526;42.070;24.752;2023-09-19T00:17:34;5.15;;;4.53;;
10947;SDS011;5526;42.070;24.752;2023-09-19T00:20:03;5.40;;;4.90;;
10947;SDS011;5526;42.070;24.752;2023-09-19T00:22:32;4.93;;;4.45;;
10947;SDS011;5526;42.070;24.752;2023-09-19T00:25:00;5.45;;;4.95;;
10947;SDS011;5526;42.070;24.752;2023-09-19T00:27:28;5.18;;;4.72;;
10947;SDS011;5526;42.070;24.752;2023-09-19T00:29:55;5.10;;;4.57;;
10947;SDS011;5526;42.070;24.752;2023-09-19T00:32:23;5.10;;;4.70;;
10947;SDS011;5526;42.070;24.752;2023-09-19T00:34:50;5.00;;;4.60;;
10947;SDS011;5526;42.070;24.752;2023-09-19T00:37:17;4.55;;;4.15;;
10947;SDS011;5526;42.070;24.752;2023-09-19T00:39:44;5.57;;;4.57;;
10947;SDS011;5526;42.070;24.752;2023-09-19T00:42:17;4.70;;;4.30;;
10947;SDS011;5526;42.070;24.752;2023-09-19T00:44:46;4.68;;;4.30;;
10947;SDS011;5526;42.070;24.752;2023-09-19T00:47:16;4.93;;;4.53;;
10947;SDS011;5526;42.070;24.752;2023-09-19T00:49:45;4.80;;;4.40;;
10947;SDS011;5526;42.070;24.752;2023-09-19T00:52:15;5.93;;;4.57;;
10947;SDS011;5526;42.070;24.752;2023-09-19T00:54:45;4.57;;;4.28;;
10947;SDS011;5526;42.070;24.752;2023-09-19T00:57:13;4.22;;;3.83;;
10947;SDS011;5526;42.070;24.752;2023-09-19T00:59:42;4.65;;;4.07;;
10947;SDS011;5526;42.070;24.752;2023-09-19T01:02:10;4.18;;;3.95;;
10947;SDS011;5526;42.070;24.752;2023-09-19T01:04:39;4.63;;;4.32;;
10947;SDS011;5526;42.070;24.752;2023-09-19T01:07:08;4.63;;;4.22;;
10947;SDS011;5526;42.070;24.752;2023-09-19T01:09:36;4.38;;;4.07;;
10947;SDS011;5526;42.070;24.752;2023-09-19T01:12:04;4.95;;;4.50;;
10947;SDS011;5526;42.070;24.752;2023-09-19T01:14:36;4.85;;;4.40;;
10947;SDS011;5526;42.070;24.752;2023-09-19T01:17:09;5.20;;;4.70;;
10947;SDS011;5526;42.070;24.752;2023-09-19T01:28:47;4.97;;;4.38;;
10947;SDS011;5526;42.070;24.752;2023-09-19T01:31:22;4.45;;;4.15;;
10947;SDS011;5526;42.070;24.752;2023-09-19T01:33:54;5.00;;;4.63;;
10947;SDS011;5526;42.070;24.752;2023-09-19T01:36:26;4.80;;;4.40;;
10947;SDS011;5526;42.070;24.752;2023-09-19T01:38:54;4.78;;;4.47;;
10947;SDS011;5526;42.070;24.752;2023-09-19T01:41:26;4.68;;;4.28;;
10947;SDS011;5526;42.070;24.752;2023-09-19T01:44:04;4.43;;;4.15;;
10947;SDS011;5526;42.070;24.752;2023-09-19T01:46:38;4.78;;;4.40;;
10947;SDS011;5526;42.070;24.752;2023-09-19T01:49:12;4.75;;;4.43;;
10947;SDS011;5526;42.070;24.752;2023-09-19T01:51:51;4.28;;;3.97;;
10947;SDS011;5526;42.070;24.752;2023-09-19T01:54:26;4.47;;;4.18;;
10947;SDS011;5526;42.070;24.752;2023-09-19T01:56:59;4.75;;;4.30;;
10947;SDS011;5526;42.070;24.752;2023-09-19T01:59:34;4.30;;;3.97;;
10947;SDS011;5526;42.070;24.752;2023-09-19T02:02:07;4.55;;;4.25;;
10947;SDS011;5526;42.070;24.752;2023-09-19T02:04:35;5.07;;;4.57;;
10947;SDS011;5526;42.070;24.752;2023-09-19T02:07:03;7.25;;;4.70;;
10947;SDS011;5526;42.070;24.752;2023-09-19T02:09:33;4.70;;;4.25;;
10947;SDS011;5526;42.070;24.752;2023-09-19T02:12:04;4.97;;;4.57;;
10947;SDS011;5526;42.070;24.752;2023-09-19T02:14:32;5.10;;;4.72;;
10947;SDS011;5526;42.070;24.752;2023-09-19T02:17:01;4.57;;;4.03;;
10947;SDS011;5526;42.070;24.752;2023-09-19T02:19:32;4.95;;;4.55;;
10947;SDS011;5526;42.070;24.752;2023-09-19T02:21:59;5.00;;;4.60;;
10947;SDS011;5526;42.070;24.752;2023-09-19T02:24:28;5.35;;;4.85;;
10947;SDS011;5526;42.070;24.752;2023-09-19T02:26:56;4.93;;;4.60;;
10947;SDS011;5526;42.070;24.752;2023-09-19T02:29:24;5.18;;;4.78;;
10947;SDS011;5526;42.070;24.752;2023-09-19T02:31:52;5.03;;;4.68;;
10947;SDS011;5526;42.070;24.752;2023-09-19T02:34:21;4.97;;;4.47;;
10947;SDS011;5526;42.070;24.752;2023-09-19T02:36:50;5.05;;;4.65;;
10947;SDS011;5526;42.070;24.752;2023-09-19T02:39:19;5.15;;;4.75;;
10947;SDS011;5526;42.070;24.752;2023-09-19T02:41:46;4.85;;;4.55;;
10947;SDS011;5526;42.070;24.752;2023-09-19T02:44:13;5.32;;;4.90;;
10947;SDS011;5526;42.070;24.752;2023-09-19T02:46:40;4.43;;;4.13;;
10947;SDS011;5526;42.070;24.752;2023-09-19T02:49:07;4.57;;;4.28;;
10947;SDS011;5526;42.070;24.752;2023-09-19T02:51:35;5.25;;;4.75;;
10947;SDS011;5526;42.070;24.752;2023-09-19T02:54:04;5.63;;;4.13;;
10947;SDS011;5526;42.070;24.752;2023-09-19T02:56:31;4.55;;;4.15;;
10947;SDS011;5526;42.070;24.752;2023-09-19T02:58:59;4.80;;;4.38;;
10947;SDS011;5526;42.070;24.752;2023-09-19T03:01:26;7.47;;;4.30;;
10947;SDS011;5526;42.070;24.752;2023-09-19T03:03:54;5.15;;;4.75;;
10947;SDS011;5526;42.070;24.752;2023-09-19T03:06:21;5.32;;;4.68;;
10947;SDS011;5526;42.070;24.752;2023-09-19T03:08:49;5.13;;;4.72;;
10947;SDS011;5526;42.070;24.752;2023-09-19T03:11:18;4.68;;;4.28;;
10947;SDS011;5526;42.070;24.752;2023-09-19T03:13:50;5.13;;;4.68;;
10947;SDS011;5526;42.070;24.752;2023-09-19T03:16:18;4.55;;;4.25;;
10947;SDS011;5526;42.070;24.752;2023-09-19T03:18:47;5.15;;;4.75;;
10947;SDS011;5526;42.070;24.752;2023-09-19T03:21:15;4.97;;;4.60;;
10947;SDS011;5526;42.070;24.752;2023-09-19T03:23:42;5.47;;;4.40;;
10947;SDS011;5526;42.070;24.752;2023-09-19T03:26:11;4.82;;;4.43;;
10947;SDS011;5526;42.070;24.752;2023-09-19T03:28:41;5.45;;;4.80;;
10947;SDS011;5526;42.070;24.752;2023-09-19T03:31:09;5.18;;;4.78;;
10947;SDS011;5526;42.070;24.752;2023-09-19T03:33:36;4.75;;;4.32;;
10947;SDS011;5526;42.070;24.752;2023-09-19T03:36:04;5.15;;;4.75;;
10947;SDS011;5526;42.070;24.752;2023-09-19T03:38:32;5.07;;;4.63;;
10947;SDS011;5526;42.070;24.752;2023-09-19T03:41:00;4.97;;;4.57;;
10947;SDS011;5526;42.070;24.752;2023-09-19T03:43:27;4.80;;;4.40;;
10947;SDS011;5526;42.070;24.752;2023-09-19T03:45:56;5.22;;;4.88;;
10947;SDS011;5526;42.070;24.752;2023-09-19T03:48:23;5.38;;;4.97;;
10947;SDS011;5526;42.070;24.752;2023-09-19T03:50:50;6.85;;;4.78;;
10947;SDS011;5526;42.070;24.752;2023-09-19T03:53:19;4.93;;;4.53;;
10947;SDS011;5526;42.070;24.752;2023-09-19T03:55:46;6.72;;;5.00;;
10947;SDS011;5526;42.070;24.752;2023-09-19T03:58:13;6.47;;;5.20;;
10947;SDS011;5526;42.070;24.752;2023-09-19T04:00:40;5.30;;;4.80;;
10947;SDS011;5526;42.070;24.752;2023-09-19T04:03:08;6.32;;;5.60;;
10947;SDS011;5526;42.070;24.752;2023-09-19T04:05:44;5.35;;;4.93;;
10947;SDS011;5526;42.070;24.752;2023-09-19T04:08:11;5.50;;;5.07;;
10947;SDS011;5526;42.070;24.752;2023-09-19T04:10:38;5.65;;;5.25;;
10947;SDS011;5526;42.070;24.752;2023-09-19T04:13:05;6.53;;;5.60;;
10947;SDS011;5526;42.070;24.752;2023-09-19T04:15:32;5.68;;;5.18;;
10947;SDS011;5526;42.070;24.752;2023-09-19T04:17:59;5.22;;;4.90;;
10947;SDS011;5526;42.070;24.752;2023-09-19T04:20:29;6.32;;;5.00;;
10947;SDS011;5526;42.070;24.752;2023-09-19T04:22:57;5.03;;;4.47;;
10947;SDS011;5526;42.070;24.752;2023-09-19T04:25:25;5.40;;;5.00;;
10947;SDS011;5526;42.070;24.752;2023-09-19T04:27:53;8.07;;;5.30;;
10947;SDS011;5526;42.070;24.752;2023-09-19T04:30:20;5.40;;;4.90;;
10947;SDS011;5526;42.070;24.752;2023-09-19T04:32:47;5.88;;;5.00;;
10947;SDS011;5526;42.070;24.752;2023-09-19T04:35:16;5.68;;;5.10;;
10947;SDS011;5526;42.070;24.752;2023-09-19T04:37:44;6.18;;;5.25;;
10947;SDS011;5526;42.070;24.752;2023-09-19T04:40:12;5.13;;;4.72;;
10947;SDS011;5526;42.070;24.752;2023-09-19T04:42:42;5.22;;;4.32;;
10947;SDS011;5526;42.070;24.752;2023-09-19T04:45:10;4.63;;;4.25;;
10947;SDS011;5526;42.070;24.752;2023-09-19T04:47:37;5.25;;;4.75;;
10947;SDS011;5526;42.070;24.752;2023-09-19T04:50:06;5.40;;;5.00;;
10947;SDS011;5526;42.070;24.752;2023-09-19T04:52:38;4.45;;;4.15;;
10947;SDS011;5526;42.070;24.752;2023-09-19T04:55:09;6.63;;;4.47;;
10947;SDS011;5526;42.070;24.752;2023-09-19T04:57:42;5.55;;;4.15;;
10947;SDS011;5526;42.070;24.752;2023-09-19T05:00:11;5.82;;;4.38;;
10947;SDS011;5526;42.070;24.752;2023-09-19T05:02:40;5.32;;;4.50;;
10947;SDS011;5526;42.070;24.752;2023-09-19T05:05:08;5.32;;;4.82;;
10947;SDS011;5526;42.070;24.752;2023-09-19T05:07:36;6.50;;;4.35;;
10947;SDS011;5526;42.070;24.752;2023-09-19T05:10:04;5.07;;;4.15;;
10947;SDS011;5526;42.070;24.752;2023-09-19T05:12:37;5.70;;;4.55;;
10947;SDS011;5526;42.070;24.752;2023-09-19T05:15:04;4.93;;;4.53;;
10947;SDS011;5526;42.070;24.752;2023-09-19T05:17:33;8.60;;;4.75;;
10947;SDS011;5526;42.070;24.752;2023-09-19T05:20:00;5.07;;;4.68;;
10947;SDS011;5526;42.070;24.752;2023-09-19T15:40:57;14.98;;;7.70;;
10947;SDS011;5526;42.070;24.752;2023-09-19T15:43:24;14.02;;;8.85;;
10947;SDS011;5526;42.070;24.752;2023-09-19T15:45:51;7.65;;;6.43;;
10947;SDS011;5526;42.070;24.752;2023-09-19T15:48:18;15.75;;;9.45;;
10947;SDS011;5526;42.070;24.752;2023-09-19T18:48:56;5.05;;;4.65;;
10947;SDS011;5526;42.070;24.752;2023-09-19T18:51:23;5.07;;;4.30;;
10947;SDS011;5526;42.070;24.752;2023-09-19T18:53:51;4.65;;;4.28;;
10947;SDS011;5526;42.070;24.752;2023-09-19T18:56:18;4.47;;;4.07;;
10947;SDS011;5526;42.070;24.752;2023-09-19T18:58:45;5.10;;;4.60;;
10947;SDS011;5526;42.070;24.752;2023-09-19T19:01:16;4.68;;;4.28;;
10947;SDS011;5526;42.070;24.752;2023-09-19T19:03:44;7.57;;;4.20;;
10947;SDS011;5526;42.070;24.752;2023-09-19T19:06:13;4.40;;;3.70;;
10947;SDS011;5526;42.070;24.752;2023-09-19T19:08:42;4.20;;;3.80;;
10947;SDS011;5526;42.070;24.752;2023-09-19T19:11:11;11.68;;;6.25;;
10947;SDS011;5526;42.070;24.752;2023-09-19T19:13:41;4.32;;;3.92;;
10947;SDS011;5526;42.070;24.752;2023-09-19T19:16:11;4.10;;;3.80;;
10947;SDS011;5526;42.070;24.752;2023-09-19T19:18:39;4.90;;;4.05;;
10947;SDS011;5526;42.070;24.752;2023-09-19T19:21:07;3.60;;;3.30;;
10947;SDS011;5526;42.070;24.752;2023-09-19T19:23:39;4.20;;;3.90;;
10947;SDS011;5526;42.070;24.752;2023-09-19T19:26:07;4.53;;;3.53;;
10947;SDS011;5526;42.070;24.752;2023-09-19T19:28:35;3.80;;;3.60;;
10947;SDS011;5526;42.070;24.752;2023-09-19T19:31:05;4.35;;;3.72;;
10947;SDS011;5526;42.070;24.752;2023-09-19T19:33:34;3.80;;;3.50;;
10947;SDS011;5526;42.070;24.752;2023-09-19T19:36:04;4.07;;;3.28;;
10947;SDS011;5526;42.070;24.752;2023-09-19T19:38:32;3.75;;;3.45;;
10947;SDS011;5526;42.070;24.752;2023-09-19T19:41:01;3.90;;;3.60;;
10947;SDS011;5526;42.070;24.752;2023-09-19T19:43:29;4.22;;;3.60;;
10947;SDS011;5526;42.070;24.752;2023-09-19T19:45:56;3.53;;;3.22;;
10947;SDS011;5526;42.070;24.752;2023-09-19T19:48:25;3.53;;;3.22;;
10947;SDS011;5526;42.070;24.752;2023-09-19T19:50:53;3.35;;;3.15;;
10947;SDS011;5526;42.070;24.752;2023-09-19T19:53:20;3.50;;;3.20;;
10947;SDS011;5526;42.070;24.752;2023-09-19T19:55:48;5.43;;;3.58;;
10947;SDS011;5526;42.070;24.752;2023-09-19T19:58:18;3.75;;;3.42;;
10947;SDS011;5526;42.070;24.752;2023-09-19T20:00:47;4.47;;;3.30;;
10947;SDS011;5526;42.070;24.752;2023-09-19T20:03:14;3.65;;;3.35;;
10947;SDS011;5526;42.070;24.752;2023-09-19T20:05:42;3.63;;;3.30;;
10947;SDS011;5526;42.070;24.752;2023-09-19T20:08:09;3.22;;;3.03;;
10947;SDS011;5526;42.070;24.752;2023-09-19T20:10:38;3.35;;;3.05;;
10947;SDS011;5526;42.070;24.752;2023-09-19T20:13:05;3.83;;;3.50;;
10947;SDS011;5526;42.070;24.752;2023-09-19T20:15:34;3.60;;;3.40;;
10947;SDS011;5526;42.070;24.752;2023-09-19T20:18:03;3.33;;;3.13;;
10947;SDS011;5526;42.070;24.752;2023-09-19T20:20:32;3.35;;;3.15;;
10947;SDS011;5526;42.070;24.752;2023-09-19T20:22:59;3.85;;;3.30;;
10947;SDS011;5526;42.070;24.752;2023-09-19T20:25:27;3.53;;;3.22;;
10947;SDS011;5526;42.070;24.752;2023-09-19T20:27:55;3.15;;;2.90;;
10947;SDS011;5526;42.070;24.752;2023-09-19T20:30:22;3.75;;;3.45;;
10947;SDS011;5526;42.070;24.752;2023-09-19T20:32:50;4.32;;;3.92;;
10947;SDS011;5526;42.070;24.752;2023-09-19T20:35:20;6.00;;;5.50;;
10947;SDS011;5526;42.070;24.752;2023-09-19T20:37:47;6.13;;;5.60;;
10947;SDS011;5526;42.070;24.752;2023-09-19T20:40:17;6.18;;;5.57;;
10947;SDS011;5526;42.070;24.752;2023-09-19T20:42:46;5.28;;;4.78;;
10947;SDS011;5526;42.070;24.752;2023-09-19T20:45:14;5.85;;;5.13;;
10947;SDS011;5526;42.070;24.752;2023-09-19T20:47:41;5.50;;;5.00;;
10947;SDS011;5526;42.070;24.752;2023-09-19T20:50:10;5.85;;;4.70;;
10947;SDS011;5526;42.070;24.752;2023-09-19T20:52:38;4.47;;;4.13;;
10947;SDS011;5526;42.070;24.752;2023-09-19T20:55:05;3.63;;;3.40;;
10947;SDS011;5526;42.070;24.752;2023-09-19T20:57:33;4.63;;;3.42;;
10947;SDS011;5526;42.070;24.752;2023-09-19T21:00:00;4.78;;;4.07;;
10947;SDS011;5526;42.070;24.752;2023-09-19T21:02:29;5.22;;;3.78;;
10947;SDS011;5526;42.070;24.752;2023-09-19T21:04:56;4.38;;;3.70;;
10947;SDS011;5526;42.070;24.752;2023-09-19T21:07:24;3.92;;;3.33;;
10947;SDS011;5526;42.070;24.752;2023-09-19T21:09:54;3.35;;;3.15;;
10947;SDS011;5526;42.070;24.752;2023-09-19T21:12:21;4.25;;;3.38;;
10947;SDS011;5526;42.070;24.752;2023-09-19T21:14:48;3.65;;;3.35;;
10947;SDS011;5526;42.070;24.752;2023-09-19T21:17:18;27.17;;;5.25;;
10947;SDS011;5526;42.070;24.752;2023-09-19T21:19:45;3.92;;;3.53;;
10947;SDS011;5526;42.070;24.752;2023-09-19T21:22:12;3.92;;;3.28;;
10947;SDS011;5526;42.070;24.752;2023-09-19T21:24:42;3.58;;;3.30;;
10947;SDS011;5526;42.070;24.752;2023-09-19T21:27:09;3.50;;;3.20;;
10947;SDS011;5526;42.070;24.752;2023-09-19T21:29:38;4.20;;;3.80;;
10947;SDS011;5526;42.070;24.752;2023-09-19T21:32:05;3.92;;;3.60;;
10947;SDS011;5526;42.070;24.752;2023-09-19T21:34:33;3.75;;;3.45;;
10947;SDS011;5526;42.070;24.752;2023-09-19T21:37:01;4.10;;;3.70;;
10947;SDS011;5526;42.070;24.752;2023-09-19T21:39:28;3.63;;;3.42;;
10947;SDS011;5526;42.070;24.752;2023-09-19T21:41:56;4.32;;;3.53;;
10947;SDS011;5526;42.070;24.752;2023-09-19T21:44:23;4.25;;;3.30;;
10947;SDS011;5526;42.070;24.752;2023-09-19T21:46:50;3.47;;;3.17;;
10947;SDS011;5526;42.070;24.752;2023-09-19T21:49:19;3.70;;;3.50;;
10947;SDS011;5526;42.070;24.752;2023-09-19T21:51:46;4.20;;;3.80;;
10947;SDS011;5526;42.070;24.752;2023-09-19T21:54:13;4.43;;;3.63;;
10947;SDS011;5526;42.070;24.752;2023-09-19T21:56:40;3.50;;;3.30;;
10947;SDS011;5526;42.070;24.752;2023-09-19T21:59:08;3.78;;;3.47;;
10947;SDS011;5526;42.070;24.752;2023-09-19T22:01:35;3.63;;;3.25;;
10947;SDS011;5526;42.070;24.752;2023-09-19T22:04:04;4.28;;;3.85;;
10947;SDS011;5526;42.070;24.752;2023-09-19T22:06:35;4.18;;;3.85;;
10947;SDS011;5526;42.070;24.752;2023-09-19T22:09:02;3.90;;;3.60;;
10947;SDS011;5526;42.070;24.752;2023-09-19T22:11:30;4.13;;;3.80;;
10947;SDS011;5526;42.070;24.752;2023-09-19T22:13:57;5.32;;;4.68;;
10947;SDS011;5526;42.070;24.752;2023-09-19T22:16:25;4.35;;;3.95;;
10947;SDS011;5526;42.070;24.752;2023-09-19T22:18:53;3.95;;;3.70;;
10947;SDS011;5526;42.070;24.752;2023-09-19T22:21:20;5.85;;;4.20;;
10947;SDS011;5526;42.070;24.752;2023-09-19T22:23:52;6.25;;;4.53;;
10947;SDS011;5526;42.070;24.752;2023-09-19T22:26:19;4.70;;;4.30;;
10947;SDS011;5526;42.070;24.752;2023-09-19T22:28:47;4.30;;;4.00;;
10947;SDS011;5526;42.070;24.752;2023-09-19T22:31:17;4.75;;;4.45;;
10947;SDS011;5526;42.070;24.752;2023-09-19T22:33:49;5.60;;;4.03;;
10947;SDS011;5526;42.070;24.752;2023-09-19T22:36:16;4.72;;;4.32;;
10947;SDS011;5526;42.070;24.752;2023-09-19T22:38:47;5.38;;;4.97;;
10947;SDS011;5526;42.070;24.752;2023-09-19T22:41:15;5.18;;;4.68;;
10947;SDS011;5526;42.070;24.752;2023-09-19T22:43:44;4.78;;;4.40;;
10947;SDS011;5526;42.070;24.752;2023-09-19T22:46:13;5.35;;;4.72;;
10947;SDS011;5526;42.070;24.752;2023-09-19T22:48:42;7.35;;;5.90;;
10947;SDS011;5526;42.070;24.752;2023-09-19T22:51:12;7.55;;;5.88;;
10947;SDS011;5526;42.070;24.752;2023-09-19T22:53:47;6.35;;;5.75;;
10947;SDS011;5526;42.070;24.752;2023-09-19T22:56:16;6.85;;;6.15;;
10947;SDS011;5526;42.070;24.752;2023-09-19T22:58:47;7.20;;;6.05;;
10947;SDS011;5526;42.070;24.752;2023-09-19T23:01:15;8.88;;;5.93;;
10947;SDS011;5526;42.070;24.752;2023-09-19T23:03:52;6.25;;;5.70;;
10947;SDS011;5526;42.070;24.752;2023-09-19T23:06:41;6.65;;;5.40;;
10947;SDS011;5526;42.070;24.752;2023-09-19T23:09:13;6.20;;;5.60;;
10947;SDS011;5526;42.070;24.752;2023-09-19T23:11:46;6.07;;;5.57;;
10947;SDS011;5526;42.070;24.752;2023-09-19T23:14:15;5.88;;;5.30;;
10947;SDS011;5526;42.070;24.752;2023-09-19T23:16:42;6.10;;;5.50;;
10947;SDS011;5526;42.070;24.752;2023-09-19T23:19:18;6.05;;;5.55;;
10947;SDS011;5526;42.070;24.752;2023-09-19T23:21:54;5.88;;;5.47;;
10947;SDS011;5526;42.070;24.752;2023-09-19T23:24:29;5.80;;;5.30;;
10947;SDS011;5526;42.070;24.752;2023-09-19T23:27:00;5.90;;;5.40;;
10947;SDS011;5526;42.070;24.752;2023-09-19T23:29:32;5.47;;;5.05;;
10947;SDS011;5526;42.070;24.752;2023-09-19T23:32:01;5.50;;;5.10;;
10947;SDS011;5526;42.070;24.752;2023-09-19T23:34:28;5.57;;;5.18;;
10947;SDS011;5526;42.070;24.752;2023-09-19T23:36:56;5.30;;;4.63;;
10947;SDS011;5526;42.070;24.752;2023-09-19T23:39:24;5.30;;;4.93;;
10947;SDS011;5526;42.070;24.752;2023-09-19T23:41:51;5.63;;;5.13;;
10947;SDS011;5526;42.070;24.752;2023-09-19T23:44:18;5.72;;;5.07;;
10947;SDS011;5526;42.070;24.752;2023-09-19T23:46:46;5.32;;;4.85;;
10947;SDS011;5526;42.070;24.752;2023-09-19T23:49:20;5.28;;;4.90;;
10947;SDS011;5526;42.070;24.752;2023-09-19T23:51:47;5.50;;;5.10;;
10947;SDS011;5526;42.070;24.752;2023-09-19T23:54:16;5.68;;;5.07;;
10947;SDS011;5526;42.070;24.752;2023-09-19T23:56:50;5.60;;;5.10;;
10947;SDS011;5526;42.070;24.752;2023-09-19T23:59:17;5.78;;;5.28;;
